createdAt,value
2018-03-12T00:00:56.915Z,76.3
2018-03-12T00:01:57.573Z,76.4
2018-03-12T00:02:58.278Z,76.3
2018-03-12T00:03:58.932Z,76.5
2018-03-12T00:04:59.586Z,76.4
2018-03-12T00:06:00.290Z,77.4
2018-03-12T00:07:00.946Z,77.5
2018-03-12T00:08:01.638Z,76.5
2018-03-12T00:09:02.293Z,77.2
2018-03-12T00:10:02.948Z,77.4
2018-03-12T00:11:03.605Z,77.2
2018-03-12T00:12:04.260Z,77.7
2018-03-12T00:13:04.918Z,77.4
2018-03-12T00:14:05.607Z,77.6
2018-03-12T00:15:06.264Z,77.4
2018-03-12T00:16:06.918Z,77.9
2018-03-12T00:17:07.573Z,78.1
2018-03-12T00:18:08.229Z,77.9
2018-03-12T00:19:08.919Z,78.1
2018-03-12T00:20:09.577Z,77.9
2018-03-12T00:21:10.229Z,78.3
2018-03-12T00:22:10.885Z,77.9
2018-03-12T00:23:11.538Z,78.0
2018-03-12T00:24:12.194Z,78.3
2018-03-12T00:25:12.899Z,78.7
2018-03-12T00:26:13.556Z,78.4
2018-03-12T00:27:14.209Z,78.8
2018-03-12T00:28:14.915Z,78.8
2018-03-12T00:29:15.571Z,79.0
2018-03-12T00:30:16.226Z,78.8
2018-03-12T00:31:16.881Z,79.2
2018-03-12T00:32:17.586Z,79.1
2018-03-12T00:33:18.334Z,79.2
2018-03-12T00:34:18.898Z,79.3
2018-03-12T00:35:19.555Z,79.3
2018-03-12T00:36:20.208Z,79.7
2018-03-12T00:37:20.862Z,80.0
2018-03-12T00:38:21.516Z,79.8
2018-03-12T00:39:22.211Z,79.8
2018-03-12T00:40:22.915Z,79.8
2018-03-12T00:41:23.568Z,79.8
2018-03-12T00:42:24.273Z,79.9
2018-03-12T00:43:24.928Z,79.7
2018-03-12T00:44:25.601Z,79.8
2018-03-12T00:45:26.238Z,79.7
2018-03-12T00:46:26.892Z,80.0
2018-03-12T00:47:27.598Z,80.0
2018-03-12T00:48:28.253Z,80.0
2018-03-12T00:49:28.909Z,80.2
2018-03-12T00:50:29.563Z,80.1
2018-03-12T00:51:30.219Z,80.5
2018-03-12T00:52:30.871Z,80.4
2018-03-12T00:53:31.527Z,80.5
2018-03-12T00:54:32.180Z,80.4
2018-03-12T00:55:32.836Z,81.0
2018-03-12T00:56:33.538Z,80.9
2018-03-12T00:57:34.242Z,80.9
2018-03-12T00:58:34.900Z,81.3
2018-03-12T00:59:35.554Z,81.7
2018-03-12T01:00:36.210Z,81.6
2018-03-12T01:01:36.863Z,81.6
2018-03-12T01:02:37.520Z,81.5
2018-03-12T01:03:38.174Z,81.4
2018-03-12T01:04:38.829Z,81.7
2018-03-12T01:05:39.532Z,81.7
2018-03-12T01:06:40.187Z,81.9
2018-03-12T01:07:40.845Z,82.7
2018-03-12T01:08:41.537Z,82.3
2018-03-12T01:09:42.192Z,82.6
2018-03-12T01:10:42.847Z,82.4
2018-03-12T01:11:43.501Z,83.3
2018-03-12T01:12:44.156Z,82.7
2018-03-12T01:13:44.812Z,83.1
2018-03-12T01:14:45.465Z,83.3
2018-03-12T01:15:46.120Z,83.0
2018-03-12T01:16:46.773Z,83.3
2018-03-12T01:17:47.428Z,83.1
2018-03-12T01:18:48.083Z,83.1
2018-03-12T01:19:48.738Z,83.2
2018-03-12T01:20:49.394Z,83.2
2018-03-12T01:21:50.050Z,83.5
2018-03-12T01:22:50.705Z,83.5
2018-03-12T01:23:51.358Z,83.6
2018-03-12T01:24:52.012Z,83.4
2018-03-12T01:25:52.666Z,83.2
2018-03-12T01:26:53.399Z,83.1
2018-03-12T01:27:54.028Z,83.9
2018-03-12T01:28:54.731Z,83.5
2018-03-12T01:29:55.386Z,83.4
2018-03-12T01:30:56.042Z,83.8
2018-03-12T01:31:56.697Z,83.7
2018-03-12T01:32:57.353Z,83.7
2018-03-12T01:33:58.007Z,83.5
2018-03-12T01:34:58.662Z,84.3
2018-03-12T01:35:59.366Z,84.4
2018-03-12T01:37:00.022Z,84.0
2018-03-12T01:38:00.674Z,84.0
2018-03-12T01:39:01.328Z,84.2
2018-03-12T01:40:01.983Z,84.6
2018-03-12T01:41:02.639Z,84.6
2018-03-12T01:42:03.293Z,84.6
2018-03-12T01:43:03.947Z,84.6
2018-03-12T01:44:04.640Z,85.4
2018-03-12T01:45:05.346Z,85.1
2018-03-12T01:46:06.086Z,84.8
2018-03-12T01:47:06.793Z,85.3
2018-03-12T01:48:07.447Z,85.3
2018-03-12T01:49:08.100Z,85.2
2018-03-12T01:50:08.756Z,86.0
2018-03-12T01:51:09.410Z,86.2
2018-03-12T01:52:10.064Z,86.3
2018-03-12T01:53:10.718Z,87.1
2018-03-12T01:54:11.373Z,87.6
2018-03-12T01:55:12.027Z,87.7
2018-03-12T01:56:12.681Z,87.7
2018-03-12T01:57:13.336Z,88.4
2018-03-12T01:58:14.045Z,87.8
2018-03-12T01:59:14.699Z,88.7
2018-03-12T02:00:15.353Z,89.2
2018-03-12T02:01:16.007Z,89.3
2018-03-12T02:02:16.701Z,89.8
2018-03-12T02:03:17.406Z,89.5
2018-03-12T02:04:18.060Z,90.0
2018-03-12T02:05:18.717Z,90.3
2018-03-12T02:06:19.369Z,91.1
2018-03-12T02:07:20.028Z,90.4
2018-03-12T02:08:20.728Z,90.9
2018-03-12T02:09:21.382Z,91.1
2018-03-12T02:10:22.039Z,91.0
2018-03-12T02:11:22.691Z,91.2
2018-03-12T02:12:23.347Z,92.6
2018-03-12T02:13:24.052Z,92.1
2018-03-12T02:14:24.705Z,92.0
2018-03-12T02:15:25.360Z,92.6
2018-03-12T02:16:26.015Z,93.0
2018-03-12T02:17:26.669Z,94.5
2018-03-12T02:18:27.323Z,94.7
2018-03-12T02:19:27.978Z,94.6
2018-03-12T02:20:28.719Z,95.3
2018-03-12T02:21:29.375Z,95.5
2018-03-12T02:22:30.078Z,94.7
2018-03-12T02:23:30.732Z,94.2
2018-03-12T02:24:31.385Z,94.8
2018-03-12T02:25:32.042Z,94.8
2018-03-12T02:26:32.695Z,95.5
2018-03-12T02:27:33.349Z,95.4
2018-03-12T02:28:34.004Z,95.2
2018-03-12T02:29:34.660Z,95.5
2018-03-12T02:30:35.311Z,95.6
2018-03-12T02:31:35.965Z,96.3
2018-03-12T02:32:36.618Z,96.5
2018-03-12T02:33:37.281Z,96.2
2018-03-12T02:34:37.964Z,96.9
2018-03-12T02:35:38.623Z,96.8
2018-03-12T02:36:39.274Z,97.7
2018-03-12T02:37:39.929Z,97.3
2018-03-12T02:38:40.631Z,98.0
2018-03-12T02:39:41.286Z,98.5
2018-03-12T02:40:41.939Z,97.8
2018-03-12T02:41:42.598Z,98.4
2018-03-12T02:42:43.286Z,98.7
2018-03-12T02:43:43.940Z,99.0
2018-03-12T02:44:44.594Z,98.5
2018-03-12T02:45:45.247Z,99.1
2018-03-12T02:46:45.987Z,99.2
2018-03-12T02:47:46.692Z,99.5
2018-03-12T02:48:47.346Z,100.0
2018-03-12T02:49:48.009Z,100.0
2018-03-12T02:50:48.660Z,100.0
2018-03-12T02:51:49.313Z,100.0
2018-03-12T02:52:50.005Z,100.0
2018-03-12T02:53:50.661Z,100.0
2018-03-12T02:54:51.363Z,100.0
2018-03-12T02:55:52.017Z,100.0
2018-03-12T02:56:52.674Z,100.0
2018-03-12T02:57:53.326Z,100.0
2018-03-12T02:58:53.983Z,100.0
2018-03-12T02:59:54.637Z,100.0
2018-03-12T03:00:55.343Z,100.0
2018-03-12T03:01:56.001Z,100.0
2018-03-12T03:02:56.654Z,100.0
2018-03-12T03:03:57.311Z,100.0
2018-03-12T03:04:57.966Z,100.0
2018-03-12T03:05:58.659Z,100.0
2018-03-12T03:06:59.311Z,100.0
2018-03-12T03:07:59.968Z,100.0
2018-03-12T03:09:00.626Z,100.0
2018-03-12T03:10:01.312Z,100.0
2018-03-12T03:11:02.069Z,100.0
2018-03-12T03:12:02.723Z,100.0
2018-03-12T03:13:03.378Z,100.0
2018-03-12T03:14:04.036Z,100.0
2018-03-12T03:15:04.738Z,100.0
2018-03-12T03:16:05.430Z,100.0
2018-03-12T03:17:06.135Z,100.0
2018-03-12T03:18:06.794Z,100.0
2018-03-12T03:19:07.483Z,100.0
2018-03-12T03:20:08.139Z,100.0
2018-03-12T03:21:08.804Z,100.0
2018-03-12T03:22:09.449Z,100.0
2018-03-12T03:23:10.105Z,100.0
2018-03-12T03:24:10.759Z,100.0
2018-03-12T03:25:11.414Z,100.0
2018-03-12T03:26:12.071Z,100.0
2018-03-12T03:27:12.728Z,100.0
2018-03-12T03:28:13.418Z,100.0
2018-03-12T03:29:14.124Z,100.0
2018-03-12T03:30:14.831Z,100.0
2018-03-12T03:31:15.435Z,100.0
2018-03-12T03:32:16.089Z,100.0
2018-03-12T03:33:16.795Z,100.0
2018-03-12T03:34:17.450Z,100.0
2018-03-12T03:35:18.105Z,100.0
2018-03-12T03:36:18.763Z,100.0
2018-03-12T03:37:19.454Z,100.0
2018-03-12T03:38:20.145Z,100.0
2018-03-12T03:39:20.850Z,100.0
2018-03-12T03:40:21.558Z,100.0
2018-03-12T03:41:22.214Z,100.0
2018-03-12T03:42:22.918Z,100.0
2018-03-12T03:43:23.573Z,100.0
2018-03-12T03:44:24.229Z,100.0
2018-03-12T03:45:24.886Z,100.0
2018-03-12T03:46:25.540Z,100.0
2018-03-12T03:47:26.244Z,100.0
2018-03-12T03:48:26.900Z,100.0
2018-03-12T03:49:27.554Z,100.0
2018-03-12T03:50:28.208Z,100.0
2018-03-12T03:51:28.865Z,100.0
2018-03-12T03:52:29.569Z,100.0
2018-03-12T03:53:30.272Z,100.0
2018-03-12T03:54:30.928Z,100.0
2018-03-12T03:55:31.589Z,100.0
2018-03-12T03:56:32.236Z,100.0
2018-03-12T03:57:32.894Z,100.0
2018-03-12T03:58:33.547Z,100.0
2018-03-12T03:59:34.203Z,100.0
2018-03-12T04:00:34.860Z,100.0
2018-03-12T04:01:35.550Z,100.0
2018-03-12T04:02:36.203Z,100.0
2018-03-12T04:03:36.860Z,100.0
2018-03-12T04:04:37.514Z,100.0
2018-03-12T04:05:38.171Z,100.0
2018-03-12T04:06:38.832Z,100.0
2018-03-12T04:07:39.518Z,100.0
2018-03-12T04:08:40.173Z,100.0
2018-03-12T04:09:40.827Z,100.0
2018-03-12T04:10:41.482Z,100.0
2018-03-12T04:11:42.137Z,100.0
2018-03-12T04:12:42.790Z,100.0
2018-03-12T04:13:43.452Z,100.0
2018-03-12T04:14:44.151Z,100.0
2018-03-12T04:15:44.856Z,100.0
2018-03-12T04:16:45.511Z,100.0
2018-03-12T04:17:46.167Z,100.0
2018-03-12T04:18:46.873Z,100.0
2018-03-12T04:19:47.528Z,100.0
2018-03-12T04:20:48.185Z,100.0
2018-03-12T04:21:48.840Z,100.0
2018-03-12T04:22:49.498Z,100.0
2018-03-12T04:23:50.150Z,100.0
2018-03-12T04:24:50.806Z,100.0
2018-03-12T04:25:51.461Z,100.0
2018-03-12T04:26:52.116Z,100.0
2018-03-12T04:27:52.771Z,100.0
2018-03-12T04:28:53.425Z,100.0
2018-03-12T04:29:54.083Z,100.0
2018-03-12T04:30:54.736Z,100.0
2018-03-12T04:31:55.393Z,100.0
2018-03-12T04:32:56.047Z,100.0
2018-03-12T04:33:56.704Z,100.0
2018-03-12T04:34:57.357Z,100.0
2018-03-12T04:35:58.013Z,100.0
2018-03-12T04:36:58.705Z,100.0
2018-03-12T04:37:59.362Z,100.0
2018-03-12T04:39:00.024Z,100.0
2018-03-12T04:40:00.672Z,100.0
2018-03-12T04:41:01.325Z,100.0
2018-03-12T04:42:01.982Z,100.0
2018-03-12T04:43:02.637Z,100.0
2018-03-12T04:44:03.292Z,100.0
2018-03-12T04:45:03.945Z,100.0
2018-03-12T04:46:04.602Z,100.0
2018-03-12T04:47:05.259Z,100.0
2018-03-12T04:48:05.912Z,100.0
2018-03-12T04:49:06.570Z,100.0
2018-03-12T04:50:07.261Z,100.0
2018-03-12T04:51:07.967Z,100.0
2018-03-12T04:52:08.618Z,100.0
2018-03-12T04:53:09.273Z,100.0
2018-03-12T04:54:09.977Z,100.0
2018-03-12T04:55:10.646Z,100.0
2018-03-12T04:56:11.290Z,100.0
2018-03-12T04:57:11.998Z,100.0
2018-03-12T04:58:12.649Z,100.0
2018-03-12T04:59:13.353Z,100.0
2018-03-12T05:00:14.010Z,100.0
2018-03-12T05:01:14.664Z,100.0
2018-03-12T05:02:15.321Z,100.0
2018-03-12T05:03:15.975Z,100.0
2018-03-12T05:04:16.631Z,100.0
2018-03-12T05:05:17.286Z,100.0
2018-03-12T05:06:17.942Z,100.0
2018-03-12T05:07:18.597Z,100.0
2018-03-12T05:08:19.288Z,100.0
2018-03-12T05:09:20.031Z,100.0
2018-03-12T05:10:20.689Z,100.0
2018-03-12T05:11:21.394Z,100.0
2018-03-12T05:12:22.049Z,100.0
2018-03-12T05:13:22.753Z,100.0
2018-03-12T05:14:23.409Z,100.0
2018-03-12T05:15:24.064Z,100.0
2018-03-12T05:16:24.721Z,100.0
2018-03-12T05:17:25.374Z,100.0
2018-03-12T05:18:26.030Z,100.0
2018-03-12T05:19:26.684Z,100.0
2018-03-12T05:20:27.341Z,100.0
2018-03-12T05:21:27.996Z,100.0
2018-03-12T05:22:28.700Z,100.0
2018-03-12T05:23:29.356Z,100.0
2018-03-12T05:24:30.017Z,100.0
2018-03-12T05:25:30.667Z,100.0
2018-03-12T05:26:31.322Z,100.0
2018-03-12T05:27:31.977Z,100.0
2018-03-12T05:28:32.632Z,100.0
2018-03-12T05:29:33.287Z,100.0
2018-03-12T05:30:33.993Z,100.0
2018-03-12T05:31:34.653Z,100.0
2018-03-12T05:32:35.304Z,100.0
2018-03-12T05:33:35.960Z,100.0
2018-03-12T05:34:36.617Z,100.0
2018-03-12T05:35:37.403Z,100.0
2018-03-12T05:36:38.018Z,100.0
2018-03-12T05:37:38.674Z,100.0
2018-03-12T05:38:39.329Z,100.0
2018-03-12T05:39:39.985Z,100.0
2018-03-12T05:40:40.641Z,100.0
2018-03-12T05:41:41.298Z,100.0
2018-03-12T05:42:41.955Z,100.0
2018-03-12T05:43:42.610Z,100.0
2018-03-12T05:44:43.267Z,100.0
2018-03-12T05:45:43.960Z,100.0
2018-03-12T05:46:44.617Z,100.0
2018-03-12T05:47:45.273Z,100.0
2018-03-12T05:48:45.930Z,100.0
2018-03-12T05:49:46.587Z,100.0
2018-03-12T05:50:47.243Z,100.0
2018-03-12T05:51:47.900Z,100.0
2018-03-12T05:52:48.556Z,100.0
2018-03-12T05:53:49.212Z,100.0
2018-03-12T05:54:49.870Z,100.0
2018-03-12T05:55:50.526Z,100.0
2018-03-12T05:56:51.183Z,100.0
2018-03-12T05:57:51.890Z,100.0
2018-03-12T05:58:52.596Z,100.0
2018-03-12T05:59:53.252Z,100.0
2018-03-12T06:00:53.911Z,100.0
2018-03-12T06:01:54.566Z,100.0
2018-03-12T06:02:55.275Z,100.0
2018-03-12T06:03:55.933Z,100.0
2018-03-12T06:04:56.639Z,100.0
2018-03-12T06:05:57.298Z,100.0
2018-03-12T06:06:57.956Z,100.0
2018-03-12T06:07:58.662Z,100.0
2018-03-12T06:08:59.319Z,100.0
2018-03-12T06:09:59.978Z,100.0
2018-03-12T06:11:00.632Z,100.0
2018-03-12T06:12:01.290Z,100.0
2018-03-12T06:13:01.948Z,100.0
2018-03-12T06:14:02.655Z,100.0
2018-03-12T06:15:03.311Z,100.0
2018-03-12T06:16:04.033Z,100.0
2018-03-12T06:17:04.626Z,100.0
2018-03-12T06:18:05.283Z,100.0
2018-03-12T06:19:05.940Z,100.0
2018-03-12T06:20:06.599Z,100.0
2018-03-12T06:21:07.342Z,100.0
2018-03-12T06:22:08.000Z,100.0
2018-03-12T06:23:08.657Z,100.0
2018-03-12T06:24:09.365Z,100.0
2018-03-12T06:25:10.020Z,100.0
2018-03-12T06:26:10.678Z,100.0
2018-03-12T06:27:11.334Z,100.0
2018-03-12T06:28:12.042Z,100.0
2018-03-12T06:29:12.696Z,100.0
2018-03-12T06:30:13.408Z,100.0
2018-03-12T06:31:14.010Z,100.0
2018-03-12T06:32:14.756Z,100.0
2018-03-12T06:33:15.464Z,100.0
2018-03-12T06:34:16.123Z,100.0
2018-03-12T06:35:16.779Z,100.0
2018-03-12T06:36:17.438Z,100.0
2018-03-12T06:37:18.155Z,100.0
2018-03-12T06:38:18.805Z,100.0
2018-03-12T06:39:19.462Z,100.0
2018-03-12T06:40:20.122Z,100.0
2018-03-12T06:41:20.786Z,100.0
2018-03-12T06:42:21.441Z,100.0
2018-03-12T06:43:22.100Z,100.0
2018-03-12T06:44:22.758Z,100.0
2018-03-12T06:45:23.419Z,100.0
2018-03-12T06:46:24.079Z,100.0
2018-03-12T06:47:24.734Z,100.0
2018-03-12T06:48:25.398Z,100.0
2018-03-12T06:49:26.052Z,100.0
2018-03-12T06:50:26.713Z,100.0
2018-03-12T06:51:27.369Z,100.0
2018-03-12T06:52:28.028Z,100.0
2018-03-12T06:53:28.741Z,100.0
2018-03-12T06:54:29.394Z,100.0
2018-03-12T06:55:30.090Z,100.0
2018-03-12T06:56:30.749Z,100.0
2018-03-12T06:57:31.409Z,100.0
2018-03-12T06:58:32.119Z,100.0
2018-03-12T06:59:32.774Z,100.0
2018-03-12T07:00:33.434Z,100.0
2018-03-12T07:01:34.091Z,100.0
2018-03-12T07:02:34.751Z,100.0
2018-03-12T07:03:35.411Z,100.0
2018-03-12T07:04:36.119Z,100.0
2018-03-12T07:05:36.776Z,100.0
2018-03-12T07:06:37.434Z,100.0
2018-03-12T07:07:38.093Z,100.0
2018-03-12T07:08:38.802Z,100.0
2018-03-12T07:09:39.461Z,100.0
2018-03-12T07:10:40.120Z,100.0
2018-03-12T07:11:40.780Z,100.0
2018-03-12T07:12:41.439Z,100.0
2018-03-12T07:13:42.098Z,100.0
2018-03-12T07:14:42.754Z,100.0
2018-03-12T07:15:43.413Z,100.0
2018-03-12T07:16:44.071Z,100.0
2018-03-12T07:17:44.729Z,100.0
2018-03-12T07:18:45.390Z,100.0
2018-03-12T07:19:46.050Z,100.0
2018-03-12T07:20:46.710Z,100.0
2018-03-12T07:21:47.369Z,100.0
2018-03-12T07:22:48.033Z,100.0
2018-03-12T07:23:48.766Z,100.0
2018-03-12T07:24:49.385Z,100.0
2018-03-12T07:25:50.099Z,100.0
2018-03-12T07:26:50.758Z,100.0
2018-03-12T07:27:51.417Z,100.0
2018-03-12T07:28:52.077Z,100.0
2018-03-12T07:29:52.736Z,100.0
2018-03-12T07:30:53.399Z,100.0
2018-03-12T07:31:54.058Z,100.0
2018-03-12T07:32:54.753Z,100.0
2018-03-12T07:33:55.415Z,100.0
2018-03-12T07:34:56.076Z,100.0
2018-03-12T07:35:56.738Z,100.0
2018-03-12T07:36:57.397Z,100.0
2018-03-12T07:37:58.055Z,100.0
2018-03-12T07:38:58.716Z,100.0
2018-03-12T07:39:59.377Z,100.0
2018-03-12T07:41:00.037Z,100.0
2018-03-12T07:42:00.748Z,100.0
2018-03-12T07:43:01.445Z,100.0
2018-03-12T07:44:02.106Z,100.0
2018-03-12T07:45:02.766Z,100.0
2018-03-12T07:46:03.425Z,100.0
2018-03-12T07:47:04.086Z,100.0
2018-03-12T07:48:04.746Z,100.0
2018-03-12T07:49:05.457Z,100.0
2018-03-12T07:50:06.122Z,100.0
2018-03-12T07:51:06.776Z,100.0
2018-03-12T07:52:07.437Z,100.0
2018-03-12T07:53:08.102Z,100.0
2018-03-12T07:54:08.870Z,100.0
2018-03-12T07:55:09.510Z,100.0
2018-03-12T07:56:10.164Z,100.0
2018-03-12T07:57:10.827Z,100.0
2018-03-12T07:58:11.488Z,100.0
2018-03-12T07:59:12.150Z,100.0
2018-03-12T08:00:12.808Z,100.0
2018-03-12T08:01:13.470Z,100.0
2018-03-12T08:02:14.130Z,100.0
2018-03-12T08:03:14.792Z,100.0
2018-03-12T08:04:15.452Z,100.0
2018-03-12T08:05:16.113Z,100.0
2018-03-12T08:06:16.823Z,100.0
2018-03-12T08:07:17.483Z,100.0
2018-03-12T08:08:18.145Z,100.0
2018-03-12T08:09:18.806Z,100.0
2018-03-12T08:10:19.516Z,100.0
2018-03-12T08:11:20.176Z,100.0
2018-03-12T08:12:20.836Z,100.0
2018-03-12T08:13:21.498Z,100.0
2018-03-12T08:14:22.158Z,100.0
2018-03-12T08:15:22.817Z,100.0
2018-03-12T08:16:23.498Z,100.0
2018-03-12T08:17:24.137Z,100.0
2018-03-12T08:18:24.799Z,100.0
2018-03-12T08:19:25.476Z,100.0
2018-03-12T08:20:26.157Z,100.0
2018-03-12T08:21:26.817Z,100.0
2018-03-12T08:22:27.478Z,100.0
2018-03-12T08:23:28.144Z,100.0
2018-03-12T08:24:28.799Z,100.0
2018-03-12T08:25:29.459Z,100.0
2018-03-12T08:26:30.169Z,100.0
2018-03-12T08:27:30.830Z,100.0
2018-03-12T08:28:31.491Z,100.0
2018-03-12T08:29:32.185Z,100.0
2018-03-12T08:30:32.814Z,100.0
2018-03-12T08:31:33.476Z,100.0
2018-03-12T08:32:34.174Z,100.0
2018-03-12T08:33:34.869Z,100.0
2018-03-12T08:34:35.532Z,100.0
2018-03-12T08:35:36.196Z,100.0
2018-03-12T08:36:36.908Z,100.0
2018-03-12T08:37:37.571Z,100.0
2018-03-12T08:38:38.262Z,100.0
2018-03-12T08:39:38.894Z,100.0
2018-03-12T08:40:39.604Z,100.0
2018-03-12T08:41:40.265Z,100.0
2018-03-12T08:42:40.925Z,100.0
2018-03-12T08:43:41.587Z,100.0
2018-03-12T08:44:42.284Z,100.0
2018-03-12T08:45:43.005Z,100.0
2018-03-12T08:46:43.610Z,100.0
2018-03-12T08:47:44.272Z,100.0
2018-03-12T08:48:44.935Z,100.0
2018-03-12T08:49:45.597Z,100.0
2018-03-12T08:50:46.259Z,100.0
2018-03-12T08:51:46.920Z,100.0
2018-03-12T08:52:47.582Z,100.0
2018-03-12T08:53:48.244Z,100.0
2018-03-12T08:54:48.903Z,100.0
2018-03-12T08:55:49.567Z,100.0
2018-03-12T08:56:50.229Z,100.0
2018-03-12T08:57:50.943Z,100.0
2018-03-12T08:58:51.609Z,100.0
2018-03-12T08:59:52.270Z,100.0
2018-03-12T09:00:52.930Z,100.0
2018-03-12T09:01:53.591Z,100.0
2018-03-12T09:02:54.259Z,100.0
2018-03-12T09:03:54.950Z,100.0
2018-03-12T09:04:55.612Z,100.0
2018-03-12T09:05:56.277Z,100.0
2018-03-12T09:06:56.941Z,100.0
2018-03-12T09:07:57.643Z,100.0
2018-03-12T09:08:58.356Z,100.0
2018-03-12T09:09:59.020Z,100.0
2018-03-12T09:10:59.680Z,100.0
2018-03-12T09:12:00.345Z,100.0
2018-03-12T09:13:01.002Z,100.0
2018-03-12T09:14:01.665Z,100.0
2018-03-12T09:15:02.325Z,100.0
2018-03-12T09:16:02.983Z,99.9
2018-03-12T09:17:03.646Z,99.8
2018-03-12T09:18:04.306Z,100.0
2018-03-12T09:19:04.966Z,99.5
2018-03-12T09:20:05.625Z,99.2
2018-03-12T09:21:06.286Z,99.6
2018-03-12T09:22:07.026Z,99.7
2018-03-12T09:23:07.657Z,100.0
2018-03-12T09:24:08.368Z,99.2
2018-03-12T09:25:09.079Z,99.9
2018-03-12T09:26:09.741Z,100.0
2018-03-12T09:27:10.402Z,99.6
2018-03-12T09:28:11.068Z,99.0
2018-03-12T09:29:11.776Z,99.3
2018-03-12T09:30:12.489Z,99.5
2018-03-12T09:31:13.150Z,99.2
2018-03-12T09:32:13.812Z,99.4
2018-03-12T09:33:14.501Z,99.4
2018-03-12T09:34:15.183Z,99.6
2018-03-12T09:35:15.845Z,99.1
2018-03-12T09:36:16.506Z,99.7
2018-03-12T09:37:17.166Z,98.6
2018-03-12T09:38:17.828Z,98.6
2018-03-12T09:39:18.488Z,98.4
2018-03-12T09:40:19.150Z,98.6
2018-03-12T09:41:19.813Z,98.4
2018-03-12T09:42:20.507Z,98.6
2018-03-12T09:43:21.167Z,99.1
2018-03-12T09:44:21.829Z,100.0
2018-03-12T09:45:22.493Z,99.6
2018-03-12T09:46:23.152Z,99.5
2018-03-12T09:47:23.812Z,99.6
2018-03-12T09:48:24.471Z,99.8
2018-03-12T09:49:25.133Z,99.3
2018-03-12T09:50:25.796Z,99.2
2018-03-12T09:51:26.452Z,99.2
2018-03-12T09:52:27.111Z,99.3
2018-03-12T09:53:27.786Z,99.4
2018-03-12T09:54:28.434Z,98.5
2018-03-12T09:55:29.094Z,98.2
2018-03-12T09:56:29.754Z,98.5
2018-03-12T09:57:30.466Z,99.6
2018-03-12T09:58:31.125Z,99.0
2018-03-12T09:59:31.785Z,99.3
2018-03-12T10:00:32.447Z,99.9
2018-03-12T10:01:33.108Z,99.5
2018-03-12T10:02:33.767Z,99.9
2018-03-12T10:03:34.428Z,100.0
2018-03-12T10:04:35.088Z,99.9
2018-03-12T10:05:35.752Z,99.9
2018-03-12T10:06:36.408Z,99.7
2018-03-12T10:07:37.075Z,100.0
2018-03-12T10:08:37.734Z,100.0
2018-03-12T10:09:38.395Z,100.0
2018-03-12T10:10:39.096Z,100.0
2018-03-12T10:11:39.715Z,100.0
2018-03-12T10:12:40.375Z,100.0
2018-03-12T10:13:41.073Z,100.0
2018-03-12T10:14:41.735Z,100.0
2018-03-12T10:15:42.397Z,100.0
2018-03-12T10:16:43.095Z,100.0
2018-03-12T10:17:43.757Z,100.0
2018-03-12T10:18:44.419Z,100.0
2018-03-12T10:19:45.082Z,100.0
2018-03-12T10:20:45.743Z,100.0
2018-03-12T10:21:46.406Z,100.0
2018-03-12T10:22:47.068Z,100.0
2018-03-12T10:23:47.732Z,100.0
2018-03-12T10:24:48.394Z,100.0
2018-03-12T10:25:49.064Z,100.0
2018-03-12T10:26:49.716Z,100.0
2018-03-12T10:27:50.378Z,100.0
2018-03-12T10:28:51.040Z,99.5
2018-03-12T10:29:51.704Z,100.0
2018-03-12T10:30:52.365Z,100.0
2018-03-12T10:31:53.029Z,100.0
2018-03-12T10:32:53.691Z,100.0
2018-03-12T10:33:54.354Z,100.0
2018-03-12T10:34:55.015Z,100.0
2018-03-12T10:35:55.676Z,100.0
2018-03-12T10:36:56.337Z,100.0
2018-03-12T10:37:56.998Z,100.0
2018-03-12T10:38:57.696Z,99.3
2018-03-12T10:39:58.359Z,99.5
2018-03-12T10:40:59.022Z,100.0
2018-03-12T10:41:59.683Z,100.0
2018-03-12T10:43:00.386Z,99.9
2018-03-12T10:44:01.006Z,99.9
2018-03-12T10:45:01.703Z,99.9
2018-03-12T10:46:02.366Z,100.0
2018-03-12T10:47:03.029Z,100.0
2018-03-12T10:48:03.693Z,100.0
2018-03-12T10:49:04.407Z,100.0
2018-03-12T10:50:05.070Z,99.6
2018-03-12T10:51:05.733Z,99.5
2018-03-12T10:52:06.395Z,99.7
2018-03-12T10:53:07.057Z,99.6
2018-03-12T10:54:07.767Z,99.3
2018-03-12T10:55:08.427Z,99.5
2018-03-12T10:56:09.138Z,99.3
2018-03-12T10:57:09.798Z,99.5
2018-03-12T10:58:10.460Z,99.4
2018-03-12T10:59:11.120Z,100.0
2018-03-12T11:00:11.820Z,99.6
2018-03-12T11:01:12.564Z,99.9
2018-03-12T11:02:13.225Z,99.4
2018-03-12T11:03:13.923Z,100.0
2018-03-12T11:04:14.583Z,99.9
2018-03-12T11:05:15.246Z,100.0
2018-03-12T11:06:15.909Z,99.5
2018-03-12T11:07:16.573Z,99.8
2018-03-12T11:08:17.284Z,99.7
2018-03-12T11:09:17.944Z,99.6
2018-03-12T11:10:18.605Z,99.7
2018-03-12T11:11:19.265Z,99.6
2018-03-12T11:12:19.928Z,99.8
2018-03-12T11:13:20.588Z,99.1
2018-03-12T11:14:21.250Z,99.7
2018-03-12T11:15:21.912Z,98.9
2018-03-12T11:16:22.614Z,98.4
2018-03-12T11:17:23.362Z,98.7
2018-03-12T11:18:24.021Z,99.3
2018-03-12T11:19:24.684Z,97.7
2018-03-12T11:20:25.351Z,98.0
2018-03-12T11:21:26.005Z,98.4
2018-03-12T11:22:26.669Z,98.8
2018-03-12T11:23:27.332Z,99.5
2018-03-12T11:24:27.996Z,99.2
2018-03-12T11:25:28.657Z,99.5
2018-03-12T11:26:29.318Z,98.3
2018-03-12T11:27:29.980Z,98.7
2018-03-12T11:28:30.642Z,97.9
2018-03-12T11:29:31.303Z,98.1
2018-03-12T11:30:32.002Z,97.6
2018-03-12T11:31:32.664Z,96.7
2018-03-12T11:32:33.375Z,96.7
2018-03-12T11:33:34.035Z,96.9
2018-03-12T11:34:34.695Z,96.8
2018-03-12T11:35:35.405Z,97.2
2018-03-12T11:36:36.067Z,97.8
2018-03-12T11:37:36.730Z,97.1
2018-03-12T11:38:37.391Z,96.5
2018-03-12T11:39:38.102Z,97.2
2018-03-12T11:40:38.822Z,96.8
2018-03-12T11:41:39.476Z,97.1
2018-03-12T11:42:40.139Z,97.3
2018-03-12T11:43:40.799Z,96.7
2018-03-12T11:44:41.462Z,97.9
2018-03-12T11:45:42.123Z,98.2
2018-03-12T11:46:42.783Z,98.4
2018-03-12T11:47:43.444Z,99.0
2018-03-12T11:48:44.141Z,99.6
2018-03-12T11:49:44.842Z,99.3
2018-03-12T11:50:45.502Z,99.2
2018-03-12T11:51:46.162Z,98.6
2018-03-12T11:52:46.822Z,98.2
2018-03-12T11:53:47.532Z,98.8
2018-03-12T11:54:48.192Z,98.5
2018-03-12T11:55:48.852Z,98.9
2018-03-12T11:56:49.514Z,99.0
2018-03-12T11:57:50.175Z,99.3
2018-03-12T11:58:50.834Z,99.7
2018-03-12T11:59:51.496Z,99.8
2018-03-12T12:00:52.156Z,99.2
2018-03-12T12:01:52.815Z,99.7
2018-03-12T12:02:53.476Z,99.7
2018-03-12T12:03:54.139Z,99.2
2018-03-12T12:04:54.798Z,99.5
2018-03-12T12:05:55.458Z,99.4
2018-03-12T12:06:56.118Z,99.1
2018-03-12T12:07:56.828Z,99.7
2018-03-12T12:08:57.490Z,99.9
2018-03-12T12:09:58.150Z,99.4
2018-03-12T12:10:58.810Z,99.5
2018-03-12T12:11:59.475Z,99.8
2018-03-12T12:13:00.132Z,99.4
2018-03-12T12:14:00.790Z,99.2
2018-03-12T12:15:01.452Z,99.1
2018-03-12T12:16:02.112Z,99.9
2018-03-12T12:17:02.772Z,99.9
2018-03-12T12:18:03.433Z,99.5
2018-03-12T12:19:04.093Z,99.5
2018-03-12T12:20:04.755Z,100.0
2018-03-12T12:21:05.415Z,100.0
2018-03-12T12:22:06.077Z,100.0
2018-03-12T12:23:06.739Z,100.0
2018-03-12T12:24:07.400Z,100.0
2018-03-12T12:25:08.060Z,99.6
2018-03-12T12:26:08.723Z,100.0
2018-03-12T12:27:09.421Z,100.0
2018-03-12T12:28:10.130Z,100.0
2018-03-12T12:29:10.789Z,99.8
2018-03-12T12:30:11.450Z,99.5
2018-03-12T12:31:12.110Z,99.8
2018-03-12T12:32:12.770Z,99.6
2018-03-12T12:33:13.431Z,99.8
2018-03-12T12:34:14.092Z,99.5
2018-03-12T12:35:14.753Z,99.7
2018-03-12T12:36:15.463Z,100.0
2018-03-12T12:37:16.122Z,99.4
2018-03-12T12:38:16.782Z,99.5
2018-03-12T12:39:17.443Z,99.8
2018-03-12T12:40:18.101Z,99.4
2018-03-12T12:41:18.765Z,100.0
2018-03-12T12:42:19.459Z,99.7
2018-03-12T12:43:20.170Z,100.0
2018-03-12T12:44:20.834Z,100.0
2018-03-12T12:45:21.492Z,99.8
2018-03-12T12:46:22.203Z,99.7
2018-03-12T12:47:22.898Z,99.2
2018-03-12T12:48:23.558Z,99.6
2018-03-12T12:49:24.219Z,99.3
2018-03-12T12:50:24.898Z,99.3
2018-03-12T12:51:25.546Z,100.0
2018-03-12T12:52:26.206Z,99.1
2018-03-12T12:53:26.867Z,99.8
2018-03-12T12:54:27.527Z,99.5
2018-03-12T12:55:28.224Z,98.5
2018-03-12T12:56:28.886Z,97.7
2018-03-12T12:57:29.590Z,97.8
2018-03-12T12:58:30.259Z,97.7
2018-03-12T12:59:30.971Z,97.0
2018-03-12T13:00:31.683Z,97.4
2018-03-12T13:01:32.343Z,96.7
2018-03-12T13:02:33.005Z,97.0
2018-03-12T13:03:33.664Z,97.7
2018-03-12T13:04:34.325Z,97.9
2018-03-12T13:05:34.988Z,97.1
2018-03-12T13:06:35.700Z,97.0
2018-03-12T13:07:36.411Z,97.1
2018-03-12T13:08:37.072Z,96.6
2018-03-12T13:09:37.785Z,96.3
2018-03-12T13:10:38.447Z,97.1
2018-03-12T13:11:39.108Z,97.1
2018-03-12T13:12:39.770Z,96.9